Belton, South Carolina
Current Conditions -  °F | °C
As of 10:11 AM on Monday 24 Nov 2014 (Local Time) from KAND Reporting Station
Broken Clouds Broken Clouds  
Wind Chill: 17°   Ceiling: 1000
Heat Index: 17°   Visibility: 10mi
Dew Point: 16°   Wind: 15mph
Humidity: 90%   Direction: 210°SSW
Pressure: 29.82"   Gusts: NA
Location:  34.52°N, 82.49°W
Report Text: KAND 241511Z AUTO 21013KT 10SM FEW005 BKN010 17/16 A2982 RMK AO2 CIG 008V012 T01720156
Loading
Personal Weather Stations






























Interactive Weather Map New forecast layout! Learn more

10-Day Weather Forecast

Advertisements
Track Severe Weather on mobile